Temp: 12.7°C   Baro: 1022.4mb
  Wind: 0.0mph   Dir: NE (54°)
  Rain: 0.0mm (0.0mm/hr)
  Solar: 0W/m2  Hum: 83%

Historic data

Bath Spa Weather Station Historical Data
Daily Summary for September 16, 2019 Units:  Both    English   Metric
Daily Weekly Monthly Yearly Custom
  High: Low: Average:
Temperature: 59.6 °F /  15.3 °C 46 °F /  7.8 °C 54.8 °F /  12.7 °C
Dew Point: 56.2 °F /  13.4 °C 43.3 °F /  6.3 °C 49.8 °F /  9.9 °C
Humidity: 94.5% 65.2% 84%
Wind Speed: 10.4mph /  16.7km/h - 3.8mph /  6.1km/h
Wind Gust: 20mph /  32.2km/h - -
Wind- - WSW
Pressure: 29.71 in /  1006 hPa 29.47 in /  997.9 hPa -
Precipitation: 0.04 in /  1.02 mm    
Historical Graphs
 
 
Tabular Data for September 16, 2019
Time Temperature Dew Point Pressure Wind Wind Speed Wind Gust Humidity Rainfall Rate (Hourly) solar
00:04 54.4 °F /  12.4 °C 51.5 °F /  10.8 °C 29.60in /  1002.3hPa SSE 2mph /  3.2km/h 6mph /  9.7km/h 90% 0.00in /  0mm 0 W/m2
00:09 54.6 °F /  12.6 °C 51.7 °F /  10.9 °C 29.60in /  1002.3hPa SSE 3.8mph /  6.1km/h 7mph /  11.3km/h 90% 0.01in /  0.25mm 0 W/m2
00:14 54.7 °F /  12.6 °C 51.8 °F /  11 °C 29.60in /  1002.3hPa SSE 4.3mph /  6.9km/h 8mph /  12.9km/h 90% 0.01in /  0.25mm 0 W/m2
00:19 54.7 °F /  12.6 °C 51.8 °F /  11 °C 29.59in /  1001.9hPa SE 3.1mph /  5km/h 9mph /  14.5km/h 90% 0.01in /  0.25mm 0 W/m2
00:24 54.8 °F /  12.7 °C 52.1 °F /  11.2 °C 29.59in /  1001.9hPa SSE 4.6mph /  7.4km/h 10mph /  16.1km/h 90.7% 0.02in /  0.51mm 0 W/m2
00:29 54.9 °F /  12.7 °C 52.3 °F /  11.3 °C 29.59in /  1001.9hPa SSE 3.4mph /  5.5km/h 10mph /  16.1km/h 91% 0.02in /  0.51mm 0 W/m2
00:34 54.9 °F /  12.7 °C 52.3 °F /  11.3 °C 29.59in /  1001.9hPa SSE 4.1mph /  6.6km/h 8mph /  12.9km/h 91% 0.02in /  0.51mm 0 W/m2
00:39 54.9 °F /  12.7 °C 52.3 °F /  11.3 °C 29.59in /  1001.9hPa SSE 5mph /  8km/h 10mph /  16.1km/h 91% 0.02in /  0.51mm 0 W/m2
00:44 55 °F /  12.8 °C 52.6 °F /  11.4 °C 29.59in /  1001.9hPa SSE 6.4mph /  10.3km/h 11mph /  17.7km/h 91.5% 0.02in /  0.51mm 0 W/m2
00:49 55.2 °F /  12.9 °C 52.9 °F /  11.6 °C 29.58in /  1001.6hPa SSE 5.9mph /  9.5km/h 11mph /  17.7km/h 92% 0.02in /  0.51mm 0 W/m2
00:54 55.4 °F /  13 °C 53.1 °F /  11.7 °C 29.58in /  1001.6hPa SSE 5.3mph /  8.5km/h 10mph /  16.1km/h 92% 0.02in /  0.51mm 0 W/m2
00:59 55.5 °F /  13.1 °C 53.2 °F /  11.8 °C 29.58in /  1001.6hPa SSE 3.3mph /  5.3km/h 7mph /  11.3km/h 92% 0.02in /  0.51mm 0 W/m2
01:04 55.6 °F /  13.1 °C 53.2 °F /  11.8 °C 29.57in /  1001.2hPa SSE 4.9mph /  7.9km/h 10mph /  16.1km/h 92% 0.02in /  0.51mm 0 W/m2
01:09 55.6 °F /  13.1 °C 53.2 °F /  11.8 °C 29.57in /  1001.2hPa SSE 3.8mph /  6.1km/h 9mph /  14.5km/h 92% 0.02in /  0.51mm 0 W/m2
01:14 55.6 °F /  13.1 °C 53.2 °F /  11.8 °C 29.57in /  1001.2hPa SSE 6.1mph /  9.8km/h 11mph /  17.7km/h 92% 0.02in /  0.51mm 0 W/m2
01:19 55.7 °F /  13.2 °C 53.3 °F /  11.8 °C 29.57in /  1001.2hPa South 5mph /  8km/h 11mph /  17.7km/h 92% 0.02in /  0.51mm 0 W/m2
01:24 55.8 °F /  13.2 °C 53.4 °F /  11.9 °C 29.57in /  1001.2hPa SE 4.1mph /  6.6km/h 7mph /  11.3km/h 92% 0.02in /  0.51mm 0 W/m2
01:29 55.8 °F /  13.2 °C 53.4 °F /  11.9 °C 29.56in /  1000.9hPa SE 1.3mph /  2.1km/h 7mph /  11.3km/h 92% 0.01in /  0.25mm 0 W/m2
01:34 55.8 °F /  13.2 °C 53.4 °F /  11.9 °C 29.56in /  1000.9hPa SSE 3.7mph /  6km/h 8mph /  12.9km/h 92% 0.01in /  0.25mm 0 W/m2
01:39 55.8 °F /  13.2 °C 53.4 °F /  11.9 °C 29.56in /  1000.9hPa SSE 3.3mph /  5.3km/h 8mph /  12.9km/h 92% 0.00in /  0mm 0 W/m2
01:44 55.8 °F /  13.2 °C 53.4 °F /  11.9 °C 29.55in /  1000.6hPa SE 6.2mph /  10km/h 10mph /  16.1km/h 92% 0.00in /  0mm 0 W/m2
01:49 55.8 °F /  13.2 °C 53.4 °F /  11.9 °C 29.55in /  1000.6hPa SE 4.7mph /  7.6km/h 10mph /  16.1km/h 92% 0.00in /  0mm 0 W/m2
01:54 55.9 °F /  13.3 °C 53.6 °F /  12 °C 29.55in /  1000.6hPa SSE 5.9mph /  9.5km/h 11mph /  17.7km/h 92% 0.00in /  0mm 0 W/m2
01:59 56 °F /  13.3 °C 53.7 °F /  12.1 °C 29.54in /  1000.2hPa SSE 6.7mph /  10.8km/h 12mph /  19.3km/h 92% 0.00in /  0mm 0 W/m2
02:04 56.2 °F /  13.4 °C 53.9 °F /  12.2 °C 29.54in /  1000.2hPa SSE 7.7mph /  12.4km/h 17mph /  27.4km/h 92% 0.00in /  0mm 0 W/m2
02:09 56.5 °F /  13.6 °C 54.1 °F /  12.3 °C 29.54in /  1000.2hPa South 5.1mph /  8.2km/h 17mph /  27.4km/h 92% 0.00in /  0mm 0 W/m2
02:14 56.5 °F /  13.6 °C 54.1 °F /  12.3 °C 29.54in /  1000.2hPa SSE 6.8mph /  10.9km/h 12mph /  19.3km/h 91.6% 0.00in /  0mm 0 W/m2
02:19 56.5 °F /  13.6 °C 54 °F /  12.2 °C 29.54in /  1000.2hPa SSE 6.5mph /  10.5km/h 11mph /  17.7km/h 91% 0.00in /  0mm 0 W/m2
02:24 56.4 °F /  13.6 °C 53.9 °F /  12.2 °C 29.54in /  1000.2hPa SSE 5.9mph /  9.5km/h 10mph /  16.1km/h 91% 0.01in /  0.25mm 0 W/m2
02:29 56.2 °F /  13.4 °C 53.8 °F /  12.1 °C 29.54in /  1000.2hPa SSE 6.1mph /  9.8km/h 11mph /  17.7km/h 91.5% 0.01in /  0.25mm 0 W/m2
02:34 56.1 °F /  13.4 °C 53.8 °F /  12.1 °C 29.53in /  999.9hPa SSE 5.1mph /  8.2km/h 11mph /  17.7km/h 92% 0.01in /  0.25mm 0 W/m2
02:39 55.9 °F /  13.3 °C 53.6 °F /  12 °C 29.53in /  999.9hPa SE 4.5mph /  7.2km/h 11mph /  17.7km/h 92% 0.01in /  0.25mm 0 W/m2
02:44 55.9 °F /  13.3 °C 53.6 °F /  12 °C 29.53in /  999.9hPa SSE 4.3mph /  6.9km/h 10mph /  16.1km/h 92% 0.01in /  0.25mm 0 W/m2
02:49 55.9 °F /  13.3 °C 53.8 °F /  12.1 °C 29.52in /  999.5hPa SSE 5.7mph /  9.2km/h 11mph /  17.7km/h 92.5% 0.01in /  0.25mm 0 W/m2
02:54 55.9 °F /  13.3 °C 54 °F /  12.2 °C 29.52in /  999.5hPa SSE 5.2mph /  8.4km/h 10mph /  16.1km/h 93% 0.01in /  0.25mm 0 W/m2
02:59 55.9 °F /  13.3 °C 54 °F /  12.2 °C 29.52in /  999.5hPa SSE 3.3mph /  5.3km/h 10mph /  16.1km/h 93% 0.01in /  0.25mm 0 W/m2
03:04 55.9 °F /  13.3 °C 54 °F /  12.2 °C 29.52in /  999.5hPa SE 3.8mph /  6.1km/h 10mph /  16.1km/h 93% 0.01in /  0.25mm 0 W/m2
03:09 56.1 °F /  13.4 °C 54.1 °F /  12.3 °C 29.52in /  999.5hPa SSE 5mph /  8km/h 10mph /  16.1km/h 93% 0.01in /  0.25mm 0 W/m2
03:14 56.1 °F /  13.4 °C 54.1 °F /  12.3 °C 29.51in /  999.2hPa SSE 4mph /  6.4km/h 10mph /  16.1km/h 93% 0.01in /  0.25mm 0 W/m2
03:19 56.2 °F /  13.4 °C 54.2 °F /  12.3 °C 29.51in /  999.2hPa SSE 5.6mph /  9km/h 12mph /  19.3km/h 93% 0.01in /  0.25mm 0 W/m2
03:24 56.4 °F /  13.6 °C 54.4 °F /  12.4 °C 29.51in /  999.2hPa SSE 5mph /  8km/h 9mph /  14.5km/h 93% 0.01in /  0.25mm 0 W/m2
03:29 56.5 °F /  13.6 °C 54.5 °F /  12.5 °C 29.50in /  998.9hPa SSE 6mph /  9.7km/h 12mph /  19.3km/h 93% 0.00in /  0mm 0 W/m2
03:34 56.5 °F /  13.6 °C 54.5 °F /  12.5 °C 29.50in /  998.9hPa SSE 3.6mph /  5.8km/h 12mph /  19.3km/h 93% 0.00in /  0mm 0 W/m2
03:39 56.5 °F /  13.6 °C 54.5 °F /  12.5 °C 29.49in /  998.5hPa SSE 5mph /  8km/h 13mph /  20.9km/h 93% 0.00in /  0mm 0 W/m2
03:44 56.6 °F /  13.7 °C 54.6 °F /  12.6 °C 29.49in /  998.5hPa SSE 4.5mph /  7.2km/h 13mph /  20.9km/h 93% 0.00in /  0mm 0 W/m2
03:49 56.7 °F /  13.7 °C 54.7 °F /  12.6 °C 29.49in /  998.5hPa SSE 3.2mph /  5.1km/h 9mph /  14.5km/h 93% 0.00in /  0mm 0 W/m2
03:54 56.7 °F /  13.7 °C 54.7 °F /  12.6 °C 29.49in /  998.5hPa SSE 3.9mph /  6.3km/h 11mph /  17.7km/h 93% 0.00in /  0mm 0 W/m2
03:59 56.7 °F /  13.7 °C 54.7 °F /  12.6 °C 29.49in /  998.5hPa SSE 3.8mph /  6.1km/h 11mph /  17.7km/h 93% 0.00in /  0mm 0 W/m2
04:04 56.7 °F /  13.7 °C 54.8 °F /  12.7 °C 29.49in /  998.5hPa SE 3.3mph /  5.3km/h 9mph /  14.5km/h 93.5% 0.00in /  0mm 0 W/m2
04:09 56.7 °F /  13.7 °C 55 °F /  12.8 °C 29.49in /  998.5hPa SSE 5.1mph /  8.2km/h 10mph /  16.1km/h 94% 0.00in /  0mm 0 W/m2
04:14 56.7 °F /  13.7 °C 55 °F /  12.8 °C 29.48in /  998.2hPa SSE 4.2mph /  6.8km/h 10mph /  16.1km/h 94% 0.00in /  0mm 0 W/m2
04:19 56.7 °F /  13.7 °C 55 °F /  12.8 °C 29.48in /  998.2hPa SE 2.1mph /  3.4km/h 8mph /  12.9km/h 94% 0.00in /  0mm 0 W/m2
04:24 56.8 °F /  13.8 °C 55.1 °F /  12.8 °C 29.48in /  998.2hPa SSE 3.7mph /  6km/h 8mph /  12.9km/h 94% 0.00in /  0mm 0 W/m2
04:29 56.8 °F /  13.8 °C 55.2 °F /  12.9 °C 29.48in /  998.2hPa SSE 4.1mph /  6.6km/h 8mph /  12.9km/h 94% 0.00in /  0mm 0 W/m2
04:34 56.9 °F /  13.8 °C 55.2 °F /  12.9 °C 29.48in /  998.2hPa SSE 4.3mph /  6.9km/h 8mph /  12.9km/h 94% 0.00in /  0mm 0 W/m2
04:39 57 °F /  13.9 °C 55.2 °F /  12.9 °C 29.48in /  998.2hPa SSE 6.1mph /  9.8km/h 9mph /  14.5km/h 94% 0.00in /  0mm 0 W/m2
04:44 57 °F /  13.9 °C 55.2 °F /  12.9 °C 29.48in /  998.2hPa SSE 4mph /  6.4km/h 9mph /  14.5km/h 94% 0.00in /  0mm 0 W/m2
04:49 57.1 °F /  13.9 °C 55.3 °F /  12.9 °C 29.48in /  998.2hPa South 4.3mph /  6.9km/h 8mph /  12.9km/h 94% 0.00in /  0mm 0 W/m2
04:54 57.2 °F /  14 °C 55.4 °F /  13 °C 29.47in /  997.9hPa SSE 5.7mph /  9.2km/h 9mph /  14.5km/h 94% 0.00in /  0mm 0 W/m2
04:59 57.3 °F /  14.1 °C 55.5 °F /  13.1 °C 29.47in /  997.9hPa SSE 2mph /  3.2km/h 7mph /  11.3km/h 94% 0.00in /  0mm 0 W/m2
05:04 57.2 °F /  14 °C 55.4 °F /  13 °C 29.47in /  997.9hPa SSE 0.7mph /  1.1km/h 3mph /  4.8km/h 94% 0.00in /  0mm 0 W/m2
05:09 57.3 °F /  14.1 °C 55.5 °F /  13.1 °C 29.47in /  997.9hPa SSE 1mph /  1.6km/h 3mph /  4.8km/h 94% 0.00in /  0mm 0 W/m2
05:14 57.4 °F /  14.1 °C 55.6 °F /  13.1 °C 29.47in /  997.9hPa SSE 3mph /  4.8km/h 6mph /  9.7km/h 94% 0.01in /  0.25mm 0 W/m2
05:19 57.5 °F /  14.2 °C 55.7 °F /  13.2 °C 29.47in /  997.9hPa South 2mph /  3.2km/h 6mph /  9.7km/h 94% 0.01in /  0.25mm 0 W/m2
05:24 57.5 °F /  14.2 °C 55.7 °F /  13.2 °C 29.48in /  998.2hPa South 1.6mph /  2.6km/h 5mph /  8km/h 94% 0.01in /  0.25mm 0 W/m2
05:29 57.6 °F /  14.2 °C 55.8 °F /  13.2 °C 29.48in /  998.2hPa South 2mph /  3.2km/h 5mph /  8km/h 94% 0.01in /  0.25mm 0 W/m2
05:34 57.6 °F /  14.2 °C 55.8 °F /  13.2 °C 29.48in /  998.2hPa South 1.9mph /  3.1km/h 5mph /  8km/h 94% 0.01in /  0.25mm 0 W/m2
05:39 57.7 °F /  14.3 °C 55.8 °F /  13.2 °C 29.48in /  998.2hPa South 2.2mph /  3.5km/h 4mph /  6.4km/h 94% 0.01in /  0.25mm 0 W/m2
05:44 57.7 °F /  14.3 °C 55.9 °F /  13.3 °C 29.48in /  998.2hPa South 0.9mph /  1.4km/h 4mph /  6.4km/h 94% 0.01in /  0.25mm 0 W/m2
05:49 57.7 °F /  14.3 °C 55.9 °F /  13.3 °C 29.48in /  998.2hPa SSW 1.5mph /  2.4km/h 6mph /  9.7km/h 94% 0.01in /  0.25mm 0 W/m2
05:54 57.7 °F /  14.3 °C 55.9 °F /  13.3 °C 29.48in /  998.2hPa SW 1.2mph /  1.9km/h 6mph /  9.7km/h 94.1% 0.01in /  0.25mm 0 W/m2
05:59 57.8 °F /  14.3 °C 56.2 °F /  13.4 °C 29.49in /  998.5hPa SW 6.5mph /  10.5km/h 18mph /  29km/h 94.5% 0.01in /  0.25mm 0 W/m2
06:04 57.3 °F /  14.1 °C 55.7 °F /  13.2 °C 29.49in /  998.5hPa West 9.5mph /  15.3km/h 18mph /  29km/h 94.4% 0.01in /  0.25mm 0 W/m2
06:09 56.5 °F /  13.6 °C 54.9 °F /  12.7 °C 29.50in /  998.9hPa WNW 7.9mph /  12.7km/h 16mph /  25.7km/h 94% 0.01in /  0.25mm 0 W/m2
06:14 55.9 °F /  13.3 °C 54.3 °F /  12.4 °C 29.50in /  998.9hPa WNW 10.4mph /  16.7km/h 18mph /  29km/h 94% 0.00in /  0mm 0 W/m2
06:19 55.6 °F /  13.1 °C 54 °F /  12.2 °C 29.50in /  998.9hPa WNW 8.9mph /  14.3km/h 18mph /  29km/h 94% 0.00in /  0mm 0 W/m2
06:24 55.2 °F /  12.9 °C 53.6 °F /  12 °C 29.50in /  998.9hPa WNW 4.3mph /  6.9km/h 13mph /  20.9km/h 94% 0.00in /  0mm 0 W/m2
06:29 55.2 °F /  12.9 °C 53.6 °F /  12 °C 29.50in /  998.9hPa WNW 6.3mph /  10.1km/h 13mph /  20.9km/h 94% 0.00in /  0mm 0 W/m2
06:34 55 °F /  12.8 °C 53.3 °F /  11.8 °C 29.51in /  999.2hPa West 5.7mph /  9.2km/h 13mph /  20.9km/h 94% 0.00in /  0mm 0 W/m2
06:39 54.9 °F /  12.7 °C 53.2 °F /  11.8 °C 29.51in /  999.2hPa West 3.5mph /  5.6km/h 9mph /  14.5km/h 94% 0.00in /  0mm 0 W/m2
06:44 54.8 °F /  12.7 °C 53.1 °F /  11.7 °C 29.51in /  999.2hPa West 4.3mph /  6.9km/h 7mph /  11.3km/h 94% 0.00in /  0mm 0 W/m2
06:49 54.7 °F /  12.6 °C 53.1 °F /  11.7 °C 29.51in /  999.2hPa West 3.1mph /  5km/h 6mph /  9.7km/h 94% 0.00in /  0mm 0 W/m2
06:54 54.6 °F /  12.6 °C 53 °F /  11.7 °C 29.51in /  999.2hPa West 3.3mph /  5.3km/h 7mph /  11.3km/h 94% 0.00in /  0mm 0 W/m2
06:59 54.4 °F /  12.4 °C 52.8 °F /  11.6 °C 29.51in /  999.2hPa West 3.9mph /  6.3km/h 9mph /  14.5km/h 94% 0.00in /  0mm 0 W/m2
07:04 54.3 °F /  12.4 °C 52.7 °F /  11.5 °C 29.52in /  999.5hPa West 2.8mph /  4.5km/h 6mph /  9.7km/h 94% 0.00in /  0mm 0 W/m2
07:09 54.2 °F /  12.3 °C 52.6 °F /  11.4 °C 29.52in /  999.5hPa West 4.1mph /  6.6km/h 9mph /  14.5km/h 94% 0.00in /  0mm 0 W/m2
07:14 54.1 °F /  12.3 °C 52.5 °F /  11.4 °C 29.52in /  999.5hPa West 2.5mph /  4km/h 8mph /  12.9km/h 94% 0.00in /  0mm 0 W/m2
07:19 54.1 °F /  12.3 °C 52.2 °F /  11.2 °C 29.52in /  999.5hPa West 3.4mph /  5.5km/h 7mph /  11.3km/h 93% 0.00in /  0mm 0 W/m2
07:24 54.1 °F /  12.3 °C 52.2 °F /  11.2 °C 29.52in /  999.5hPa West 2.7mph /  4.3km/h 7mph /  11.3km/h 93% 0.00in /  0mm 0 W/m2
07:29 54.1 °F /  12.3 °C 52.2 °F /  11.2 °C 29.52in /  999.5hPa West 4.9mph /  7.9km/h 8mph /  12.9km/h 93% 0.00in /  0mm 0 W/m2
07:34 54.1 °F /  12.3 °C 52.2 °F /  11.2 °C 29.52in /  999.5hPa West 4.1mph /  6.6km/h 11mph /  17.7km/h 93% 0.00in /  0mm 0 W/m2
07:39 54.1 °F /  12.3 °C 51.8 °F /  11 °C 29.52in /  999.5hPa West 3.8mph /  6.1km/h 11mph /  17.7km/h 92% 0.00in /  0mm 0 W/m2
07:44 54 °F /  12.2 °C 51.7 °F /  10.9 °C 29.52in /  999.5hPa West 4.8mph /  7.7km/h 11mph /  17.7km/h 92% 0.00in /  0mm 0 W/m2
07:49 54 °F /  12.2 °C 51.5 °F /  10.8 °C 29.52in /  999.5hPa West 5.5mph /  8.9km/h 12mph /  19.3km/h 91.3% 0.00in /  0mm 0 W/m2
07:54 54 °F /  12.2 °C 51.4 °F /  10.8 °C 29.52in /  999.5hPa West 5.2mph /  8.4km/h 12mph /  19.3km/h 91% 0.00in /  0mm 9 W/m2
07:59 54 °F /  12.2 °C 51.3 °F /  10.7 °C 29.52in /  999.5hPa West 7.5mph /  12.1km/h 13mph /  20.9km/h 90.6% 0.00in /  0mm 11 W/m2
08:04 54.1 °F /  12.3 °C 51.3 °F /  10.7 °C 29.53in /  999.9hPa West 5.4mph /  8.7km/h 10mph /  16.1km/h 90% 0.00in /  0mm 11 W/m2
08:09 54.1 °F /  12.3 °C 50.9 °F /  10.5 °C 29.53in /  999.9hPa West 4.4mph /  7.1km/h 10mph /  16.1km/h 89.1% 0.00in /  0mm 11 W/m2
08:14 54.1 °F /  12.3 °C 50.9 °F /  10.5 °C 29.54in /  1000.2hPa West 6.6mph /  10.6km/h 12mph /  19.3km/h 89% 0.00in /  0mm 12 W/m2
08:19 54.1 °F /  12.3 °C 50.9 °F /  10.5 °C 29.54in /  1000.2hPa West 4.5mph /  7.2km/h 9mph /  14.5km/h 89% 0.00in /  0mm 12 W/m2
08:24 54 °F /  12.2 °C 50.7 °F /  10.4 °C 29.55in /  1000.6hPa WNW 5.6mph /  9km/h 11mph /  17.7km/h 89% 0.00in /  0mm 12 W/m2
08:29 54 °F /  12.2 °C 50.7 °F /  10.4 °C 29.55in /  1000.6hPa WNW 6.1mph /  9.8km/h 12mph /  19.3km/h 89% 0.00in /  0mm 14 W/m2
08:34 53.9 °F /  12.2 °C 50.6 °F /  10.3 °C 29.55in /  1000.6hPa West 5.4mph /  8.7km/h 11mph /  17.7km/h 89% 0.00in /  0mm 18 W/m2
08:39 53.8 °F /  12.1 °C 50.5 °F /  10.3 °C 29.55in /  1000.6hPa WNW 4.9mph /  7.9km/h 8mph /  12.9km/h 89% 0.00in /  0mm 25 W/m2
08:44 53.8 °F /  12.1 °C 50.5 °F /  10.3 °C 29.55in /  1000.6hPa West 6.5mph /  10.5km/h 11mph /  17.7km/h 89% 0.00in /  0mm 74 W/m2
08:49 53.8 °F /  12.1 °C 50.5 °F /  10.3 °C 29.55in /  1000.6hPa West 6.5mph /  10.5km/h 11mph /  17.7km/h 89% 0.00in /  0mm 74 W/m2
08:54 53.8 °F /  12.1 °C 50.5 °F /  10.3 °C 29.55in /  1000.6hPa West 5.1mph /  8.2km/h 10mph /  16.1km/h 89% 0.00in /  0mm 84 W/m2
08:59 53.8 °F /  12.1 °C 50.5 °F /  10.3 °C 29.55in /  1000.6hPa WNW 4.8mph /  7.7km/h 9mph /  14.5km/h 89% 0.00in /  0mm 98 W/m2
09:04 53.9 °F /  12.2 °C 50.6 °F /  10.3 °C 29.56in /  1000.9hPa West 4.8mph /  7.7km/h 9mph /  14.5km/h 89% 0.00in /  0mm 95 W/m2
09:09 54 °F /  12.2 °C 50.5 °F /  10.3 °C 29.56in /  1000.9hPa West 3.3mph /  5.3km/h 9mph /  14.5km/h 88.2% 0.00in /  0mm 74 W/m2
09:14 54 °F /  12.2 °C 50.5 °F /  10.3 °C 29.56in /  1000.9hPa West 4.2mph /  6.8km/h 8mph /  12.9km/h 88% 0.00in /  0mm 97 W/m2
09:19 54 °F /  12.2 °C 50.6 °F /  10.3 °C 29.56in /  1000.9hPa West 5.5mph /  8.9km/h 10mph /  16.1km/h 88% 0.00in /  0mm 135 W/m2
09:24 54.3 °F /  12.4 °C 50.6 °F /  10.3 °C 29.56in /  1000.9hPa West 3.2mph /  5.1km/h 10mph /  16.1km/h 87.3% 0.00in /  0mm 135 W/m2
09:29 54.7 °F /  12.6 °C 50.9 °F /  10.5 °C 29.56in /  1000.9hPa West 3.3mph /  5.3km/h 8mph /  12.9km/h 87% 0.00in /  0mm 130 W/m2
09:34 54.7 °F /  12.6 °C 50.7 °F /  10.4 °C 29.56in /  1000.9hPa WNW 7.6mph /  12.2km/h 11mph /  17.7km/h 86.3% 0.00in /  0mm 144 W/m2
09:39 54.9 °F /  12.7 °C 50.4 °F /  10.2 °C 29.56in /  1000.9hPa West 5.1mph /  8.2km/h 11mph /  17.7km/h 85% 0.00in /  0mm 156 W/m2
09:44 55 °F /  12.8 °C 50.4 °F /  10.2 °C 29.56in /  1000.9hPa WNW 4.1mph /  6.6km/h 10mph /  16.1km/h 84.1% 0.00in /  0mm 185 W/m2
09:49 55 °F /  12.8 °C 50 °F /  10 °C 29.56in /  1000.9hPa WNW 8.6mph /  13.8km/h 13mph /  20.9km/h 83.1% 0.00in /  0mm 155 W/m2
09:54 54.8 °F /  12.7 °C 49.4 °F /  9.7 °C 29.56in /  1000.9hPa WNW 6.2mph /  10km/h 13mph /  20.9km/h 82.1% 0.00in /  0mm 230 W/m2
09:59 54.8 °F /  12.7 °C 49.4 °F /  9.7 °C 29.56in /  1000.9hPa West 6.1mph /  9.8km/h 10mph /  16.1km/h 82% 0.00in /  0mm 135 W/m2
10:04 54.8 °F /  12.7 °C 49.2 °F /  9.6 °C 29.56in /  1000.9hPa WNW 7.5mph /  12.1km/h 13mph /  20.9km/h 81.5% 0.00in /  0mm 243 W/m2
10:09 55 °F /  12.8 °C 49.3 °F /  9.6 °C 29.57in /  1001.2hPa West 6.5mph /  10.5km/h 11mph /  17.7km/h 81.2% 0.00in /  0mm 239 W/m2
10:14 55.3 °F /  12.9 °C 49.6 °F /  9.8 °C 29.57in /  1001.2hPa WNW 5.6mph /  9km/h 10mph /  16.1km/h 81% 0.00in /  0mm 248 W/m2
10:19 55.6 °F /  13.1 °C 49.4 °F /  9.7 °C 29.57in /  1001.2hPa West 6.6mph /  10.6km/h 13mph /  20.9km/h 79.8% 0.00in /  0mm 262 W/m2
10:24 55.7 °F /  13.2 °C 49.1 °F /  9.5 °C 29.57in /  1001.2hPa West 6.4mph /  10.3km/h 12mph /  19.3km/h 78.8% 0.00in /  0mm 299 W/m2
10:29 55.8 °F /  13.2 °C 49.4 °F /  9.7 °C 29.58in /  1001.6hPa WNW 5.7mph /  9.2km/h 13mph /  20.9km/h 79% 0.00in /  0mm 299 W/m2
10:34 55.5 °F /  13.1 °C 48.5 °F /  9.2 °C 29.58in /  1001.6hPa WNW 7.7mph /  12.4km/h 15mph /  24.1km/h 77.3% 0.00in /  0mm 332 W/m2
10:39 55.5 °F /  13.1 °C 48.6 °F /  9.2 °C 29.59in /  1001.9hPa WNW 7.5mph /  12.1km/h 15mph /  24.1km/h 77.3% 0.00in /  0mm 332 W/m2
10:44 55.7 °F /  13.2 °C 48.6 °F /  9.2 °C 29.59in /  1001.9hPa WNW 7.8mph /  12.6km/h 14mph /  22.5km/h 76.8% 0.00in /  0mm 374 W/m2
10:49 55.8 °F /  13.2 °C 48.4 °F /  9.1 °C 29.59in /  1001.9hPa WNW 7.7mph /  12.4km/h 15mph /  24.1km/h 76% 0.00in /  0mm 316 W/m2
10:54 55.8 °F /  13.2 °C 48.5 °F /  9.2 °C 29.59in /  1001.9hPa WNW 8.4mph /  13.5km/h 16mph /  25.7km/h 76.4% 0.00in /  0mm 206 W/m2
10:59 55.6 °F /  13.1 °C 47.9 °F /  8.8 °C 29.59in /  1001.9hPa West 7.7mph /  12.4km/h 16mph /  25.7km/h 75.2% 0.00in /  0mm 352 W/m2
11:04 55.7 °F /  13.2 °C 48 °F /  8.9 °C 29.60in /  1002.3hPa WNW 8.2mph /  13.2km/h 18mph /  29km/h 75.1% 0.00in /  0mm 399 W/m2
11:09 55.8 °F /  13.2 °C 47.9 °F /  8.8 °C 29.60in /  1002.3hPa WNW 7mph /  11.3km/h 18mph /  29km/h 74.7% 0.00in /  0mm 399 W/m2
11:14 55.6 °F /  13.1 °C 47.5 °F /  8.6 °C 29.60in /  1002.3hPa WNW 7.3mph /  11.7km/h 15mph /  24.1km/h 74% 0.00in /  0mm 385 W/m2
11:19 55.9 °F /  13.3 °C 47.7 °F /  8.7 °C 29.60in /  1002.3hPa West 8.5mph /  13.7km/h 20mph /  32.2km/h 73.9% 0.00in /  0mm 352 W/m2
11:24 55.6 °F /  13.1 °C 47.3 °F /  8.5 °C 29.60in /  1002.3hPa WNW 6.6mph /  10.6km/h 15mph /  24.1km/h 73.5% 0.00in /  0mm 120 W/m2
11:29 55.2 °F /  12.9 °C 47.1 °F /  8.4 °C 29.61in /  1002.6hPa WNW 8mph /  12.9km/h 13mph /  20.9km/h 74% 0.00in /  0mm 149 W/m2
11:34 55 °F /  12.8 °C 47.1 °F /  8.4 °C 29.61in /  1002.6hPa WNW 7.5mph /  12.1km/h 15mph /  24.1km/h 74.4% 0.00in /  0mm 188 W/m2
11:39 55 °F /  12.8 °C 47.3 °F /  8.5 °C 29.61in /  1002.6hPa WNW 5.3mph /  8.5km/h 12mph /  19.3km/h 75% 0.00in /  0mm 172 W/m2
11:44 55.2 °F /  12.9 °C 47.1 °F /  8.4 °C 29.61in /  1002.6hPa WNW 5.3mph /  8.5km/h 10mph /  16.1km/h 74.1% 0.00in /  0mm 174 W/m2
11:49 55.2 °F /  12.9 °C 47.1 °F /  8.4 °C 29.61in /  1002.6hPa WNW 5.8mph /  9.3km/h 11mph /  17.7km/h 74% 0.00in /  0mm 227 W/m2
11:54 55.6 °F /  13.1 °C 47.5 °F /  8.6 °C 29.61in /  1002.6hPa WNW 5.8mph /  9.3km/h 13mph /  20.9km/h 74% 0.00in /  0mm 497 W/m2
11:59 56.6 °F /  13.7 °C 48 °F /  8.9 °C 29.61in /  1002.6hPa WNW 4.8mph /  7.7km/h 10mph /  16.1km/h 73.1% 0.00in /  0mm 547 W/m2
12:04 57 °F /  13.9 °C 48.1 °F /  8.9 °C 29.61in /  1002.6hPa West 6mph /  9.7km/h 11mph /  17.7km/h 72.4% 0.00in /  0mm 410 W/m2
12:09 57 °F /  13.9 °C 48 °F /  8.9 °C 29.62in /  1002.9hPa WNW 5.7mph /  9.2km/h 11mph /  17.7km/h 72% 0.00in /  0mm 490 W/m2
12:14 57.5 °F /  14.2 °C 48.5 °F /  9.2 °C 29.62in /  1002.9hPa WNW 5mph /  8km/h 13mph /  20.9km/h 71.8% 0.00in /  0mm 522 W/m2
12:19 57.6 °F /  14.2 °C 47.6 °F /  8.7 °C 29.62in /  1002.9hPa West 8.1mph /  13km/h 13mph /  20.9km/h 69% 0.00in /  0mm 545 W/m2
12:24 57.5 °F /  14.2 °C 47.4 °F /  8.6 °C 29.62in /  1002.9hPa WNW 4.8mph /  7.7km/h 12mph /  19.3km/h 69.1% 0.00in /  0mm 526 W/m2
12:29 57.6 °F /  14.2 °C 47.5 °F /  8.6 °C 29.62in /  1002.9hPa NW 6.6mph /  10.6km/h 10mph /  16.1km/h 69.1% 0.00in /  0mm 503 W/m2
12:34 57.6 °F /  14.2 °C 47.7 °F /  8.7 °C 29.62in /  1002.9hPa WNW 4.6mph /  7.4km/h 9mph /  14.5km/h 69.8% 0.00in /  0mm 304 W/m2
12:39 57.5 °F /  14.2 °C 47.6 °F /  8.7 °C 29.62in /  1002.9hPa West 5.9mph /  9.5km/h 13mph /  20.9km/h 69.7% 0.00in /  0mm 294 W/m2
12:44 57.4 °F /  14.1 °C 47.6 °F /  8.7 °C 29.62in /  1002.9hPa WNW 5.6mph /  9km/h 13mph /  20.9km/h 69.8% 0.00in /  0mm 439 W/m2
12:49 57.5 °F /  14.2 °C 47.7 °F /  8.7 °C 29.62in /  1002.9hPa WNW 5mph /  8km/h 11mph /  17.7km/h 69.7% 0.00in /  0mm 526 W/m2
12:54 58 °F /  14.4 °C 48.2 °F /  9 °C 29.62in /  1002.9hPa West 5.4mph /  8.7km/h 11mph /  17.7km/h 69.6% 0.00in /  0mm 504 W/m2
12:59 58.2 °F /  14.6 °C 47.8 °F /  8.8 °C 29.62in /  1002.9hPa WNW 6.1mph /  9.8km/h 10mph /  16.1km/h 68.3% 0.00in /  0mm 520 W/m2
13:04 58.1 °F /  14.5 °C 47.9 °F /  8.8 °C 29.62in /  1002.9hPa WNW 6.5mph /  10.5km/h 12mph /  19.3km/h 68.8% 0.00in /  0mm 533 W/m2
13:09 58.2 °F /  14.6 °C 47.4 °F /  8.6 °C 29.62in /  1002.9hPa West 7.3mph /  11.7km/h 13mph /  20.9km/h 67.4% 0.00in /  0mm 519 W/m2
13:14 58.5 °F /  14.7 °C 47.5 °F /  8.6 °C 29.62in /  1002.9hPa West 7.8mph /  12.6km/h 15mph /  24.1km/h 67% 0.00in /  0mm 554 W/m2
13:19 58.5 °F /  14.7 °C 46.9 °F /  8.3 °C 29.62in /  1002.9hPa West 5.9mph /  9.5km/h 15mph /  24.1km/h 65.2% 0.00in /  0mm 568 W/m2
13:24 58.4 °F /  14.7 °C 46.8 °F /  8.2 °C 29.62in /  1002.9hPa WNW 5.9mph /  9.5km/h 11mph /  17.7km/h 65.2% 0.00in /  0mm 424 W/m2
13:29 58 °F /  14.4 °C 46.5 °F /  8.1 °C 29.62in /  1002.9hPa WNW 7.9mph /  12.7km/h 13mph /  20.9km/h 65.5% 0.00in /  0mm 281 W/m2
13:34 57.7 °F /  14.3 °C 47.8 °F /  8.8 °C 29.62in /  1002.9hPa WNW 5.9mph /  9.5km/h 13mph /  20.9km/h 69.4% 0.00in /  0mm 271 W/m2
13:39 57.7 °F /  14.3 °C 48.4 °F /  9.1 °C 29.62in /  1002.9hPa WNW 6.5mph /  10.5km/h 11mph /  17.7km/h 71% 0.00in /  0mm 237 W/m2
13:44 57.6 °F /  14.2 °C 48.2 °F /  9 °C 29.62in /  1002.9hPa WNW 6.8mph /  10.9km/h 12mph /  19.3km/h 70.9% 0.00in /  0mm 251 W/m2
13:49 57.6 °F /  14.2 °C 47.8 °F /  8.8 °C 29.62in /  1002.9hPa WNW 7.5mph /  12.1km/h 13mph /  20.9km/h 70% 0.00in /  0mm 309 W/m2
13:54 57.6 °F /  14.2 °C 48.1 °F /  8.9 °C 29.62in /  1002.9hPa West 6.7mph /  10.8km/h 11mph /  17.7km/h 70.7% 0.00in /  0mm 309 W/m2
13:59 57.7 °F /  14.3 °C 48.4 °F /  9.1 °C 29.62in /  1002.9hPa WNW 5.8mph /  9.3km/h 12mph /  19.3km/h 71% 0.00in /  0mm 457 W/m2
14:04 57.7 °F /  14.3 °C 48.1 °F /  8.9 °C 29.62in /  1002.9hPa West 7.5mph /  12.1km/h 12mph /  19.3km/h 70.3% 0.00in /  0mm 431 W/m2
14:09 57.8 °F /  14.3 °C 48.6 °F /  9.2 °C 29.62in /  1002.9hPa West 3.6mph /  5.8km/h 12mph /  19.3km/h 71.3% 0.00in /  0mm 490 W/m2
14:14 57.8 °F /  14.3 °C 48.4 °F /  9.1 °C 29.62in /  1002.9hPa West 5.8mph /  9.3km/h 12mph /  19.3km/h 70.8% 0.00in /  0mm 490 W/m2
14:19 58.2 °F /  14.6 °C 48.7 °F /  9.3 °C 29.63in /  1003.3hPa WNW 7.6mph /  12.2km/h 12mph /  19.3km/h 70.7% 0.00in /  0mm 506 W/m2
14:24 58.5 °F /  14.7 °C 48.9 °F /  9.4 °C 29.63in /  1003.3hPa West 5.3mph /  8.5km/h 12mph /  19.3km/h 70.4% 0.00in /  0mm 492 W/m2
14:29 58.8 °F /  14.9 °C 49.2 °F /  9.6 °C 29.63in /  1003.3hPa West 5.3mph /  8.5km/h 10mph /  16.1km/h 70.3% 0.00in /  0mm 476 W/m2
14:34 58.9 °F /  14.9 °C 49.2 °F /  9.6 °C 29.63in /  1003.3hPa West 5.6mph /  9km/h 11mph /  17.7km/h 70.1% 0.00in /  0mm 452 W/m2
14:39 59 °F /  15 °C 49.4 °F /  9.7 °C 29.63in /  1003.3hPa West 3.8mph /  6.1km/h 9mph /  14.5km/h 70.3% 0.00in /  0mm 452 W/m2
14:44 59.5 °F /  15.3 °C 49.6 °F /  9.8 °C 29.63in /  1003.3hPa West 5mph /  8km/h 11mph /  17.7km/h 69.6% 0.00in /  0mm 431 W/m2
14:49 59.6 °F /  15.3 °C 49.5 °F /  9.7 °C 29.62in /  1002.9hPa WNW 4.2mph /  6.8km/h 9mph /  14.5km/h 69.2% 0.00in /  0mm 427 W/m2
14:54 59.6 °F /  15.3 °C 49 °F /  9.4 °C 29.62in /  1002.9hPa WNW 6.3mph /  10.1km/h 11mph /  17.7km/h 68.2% 0.00in /  0mm 360 W/m2
14:59 59.3 °F /  15.2 °C 48.6 °F /  9.2 °C 29.63in /  1003.3hPa WNW 4.2mph /  6.8km/h 9mph /  14.5km/h 67.9% 0.00in /  0mm 446 W/m2
15:04 59.3 °F /  15.2 °C 48.6 °F /  9.2 °C 29.62in /  1002.9hPa West 6.5mph /  10.5km/h 11mph /  17.7km/h 67.8% 0.00in /  0mm 445 W/m2
15:09 59.4 °F /  15.2 °C 48.6 °F /  9.2 °C 29.62in /  1002.9hPa West 6.2mph /  10km/h 12mph /  19.3km/h 67.8% 0.00in /  0mm 438 W/m2
15:14 59.3 °F /  15.2 °C 48.7 °F /  9.3 °C 29.62in /  1002.9hPa West 5.5mph /  8.9km/h 12mph /  19.3km/h 68% 0.00in /  0mm 320 W/m2
15:19 58.7 °F /  14.8 °C 48.3 °F /  9.1 °C 29.62in /  1002.9hPa WNW 5.2mph /  8.4km/h 12mph /  19.3km/h 68.2% 0.00in /  0mm 450 W/m2
15:24 58.7 °F /  14.8 °C 48.7 °F /  9.3 °C 29.62in /  1002.9hPa West 5.8mph /  9.3km/h 12mph /  19.3km/h 69% 0.00in /  0mm 225 W/m2
15:29 58.5 °F /  14.7 °C 48.4 °F /  9.1 °C 29.63in /  1003.3hPa West 6.9mph /  11.1km/h 14mph /  22.5km/h 68.9% 0.00in /  0mm 151 W/m2
15:34 58.1 °F /  14.5 °C 48.3 °F /  9.1 °C 29.63in /  1003.3hPa West 6.2mph /  10km/h 10mph /  16.1km/h 69.8% 0.00in /  0mm 181 W/m2
15:39 57.9 °F /  14.4 °C 48.4 °F /  9.1 °C 29.63in /  1003.3hPa WNW 4.7mph /  7.6km/h 10mph /  16.1km/h 70.6% 0.00in /  0mm 181 W/m2
15:44 57.9 °F /  14.4 °C 48.6 °F /  9.2 °C 29.63in /  1003.3hPa West 6.4mph /  10.3km/h 11mph /  17.7km/h 71% 0.00in /  0mm 178 W/m2
15:49 57.8 °F /  14.3 °C 48.5 °F /  9.2 °C 29.63in /  1003.3hPa West 6.1mph /  9.8km/h 11mph /  17.7km/h 71% 0.00in /  0mm 142 W/m2
15:54 57.7 °F /  14.3 °C 48.7 °F /  9.3 °C 29.63in /  1003.3hPa West 4.1mph /  6.6km/h 9mph /  14.5km/h 72% 0.00in /  0mm 118 W/m2
15:59 57.7 °F /  14.3 °C 48.8 °F /  9.3 °C 29.63in /  1003.3hPa West 3.8mph /  6.1km/h 8mph /  12.9km/h 72.3% 0.00in /  0mm 113 W/m2
16:04 57.7 °F /  14.3 °C 49.1 °F /  9.5 °C 29.63in /  1003.3hPa West 3.3mph /  5.3km/h 7mph /  11.3km/h 73% 0.00in /  0mm 118 W/m2
16:09 57.7 °F /  14.3 °C 49.1 °F /  9.5 °C 29.63in /  1003.3hPa WSW 3.5mph /  5.6km/h 7mph /  11.3km/h 73% 0.00in /  0mm 118 W/m2
16:14 57.7 °F /  14.3 °C 49.1 °F /  9.5 °C 29.63in /  1003.3hPa WSW 2.9mph /  4.7km/h 7mph /  11.3km/h 73% 0.00in /  0mm 113 W/m2
16:19 57.7 °F /  14.3 °C 49.2 °F /  9.6 °C 29.63in /  1003.3hPa WSW 4.3mph /  6.9km/h 8mph /  12.9km/h 73.5% 0.00in /  0mm 111 W/m2
16:24 57.6 °F /  14.2 °C 49.3 °F /  9.6 °C 29.63in /  1003.3hPa West 5.4mph /  8.7km/h 10mph /  16.1km/h 74% 0.00in /  0mm 114 W/m2
16:29 57.5 °F /  14.2 °C 49.2 °F /  9.6 °C 29.63in /  1003.3hPa West 2.9mph /  4.7km/h 10mph /  16.1km/h 74% 0.00in /  0mm 128 W/m2
16:34 57.6 °F /  14.2 °C 49.3 °F /  9.6 °C 29.63in /  1003.3hPa WSW 3.8mph /  6.1km/h 8mph /  12.9km/h 74% 0.00in /  0mm 130 W/m2
16:39 57.6 °F /  14.2 °C 49.3 °F /  9.6 °C 29.63in /  1003.3hPa WSW 4.1mph /  6.6km/h 8mph /  12.9km/h 74% 0.00in /  0mm 127 W/m2
16:44 57.6 °F /  14.2 °C 49.6 °F /  9.8 °C 29.63in /  1003.3hPa WSW 3.6mph /  5.8km/h 8mph /  12.9km/h 74.9% 0.00in /  0mm 144 W/m2
16:49 57.6 °F /  14.2 °C 49.6 °F /  9.8 °C 29.63in /  1003.3hPa WSW 3.8mph /  6.1km/h 7mph /  11.3km/h 75% 0.00in /  0mm 151 W/m2
16:54 57.6 °F /  14.2 °C 49.5 °F /  9.7 °C 29.63in /  1003.3hPa WSW 4.4mph /  7.1km/h 8mph /  12.9km/h 74.7% 0.00in /  0mm 128 W/m2
16:59 57.5 °F /  14.2 °C 49.4 °F /  9.7 °C 29.63in /  1003.3hPa WSW 2.8mph /  4.5km/h 8mph /  12.9km/h 74.4% 0.00in /  0mm 139 W/m2
17:04 57.7 °F /  14.3 °C 49.7 °F /  9.8 °C 29.63in /  1003.3hPa WSW 4.5mph /  7.2km/h 8mph /  12.9km/h 74.9% 0.00in /  0mm 127 W/m2
17:09 57.7 °F /  14.3 °C 49.6 °F /  9.8 °C 29.63in /  1003.3hPa WSW 3.3mph /  5.3km/h 8mph /  12.9km/h 74.4% 0.00in /  0mm 118 W/m2
17:14 57.7 °F /  14.3 °C 49.5 °F /  9.7 °C 29.63in /  1003.3hPa WSW 4.4mph /  7.1km/h 8mph /  12.9km/h 74% 0.00in /  0mm 109 W/m2
17:19 57.6 °F /  14.2 °C 49.3 °F /  9.6 °C 29.63in /  1003.3hPa WSW 4.4mph /  7.1km/h 8mph /  12.9km/h 74% 0.00in /  0mm 84 W/m2
17:24 57.6 °F /  14.2 °C 49.5 °F /  9.7 °C 29.63in /  1003.3hPa WSW 2.8mph /  4.5km/h 7mph /  11.3km/h 74.8% 0.00in /  0mm 77 W/m2
17:29 57.4 °F /  14.1 °C 49.5 °F /  9.7 °C 29.63in /  1003.3hPa WSW 2.5mph /  4km/h 5mph /  8km/h 75% 0.00in /  0mm 58 W/m2
17:34 57 °F /  13.9 °C 49.1 °F /  9.5 °C 29.63in /  1003.3hPa WSW 2.3mph /  3.7km/h 6mph /  9.7km/h 75% 0.00in /  0mm 28 W/m2
17:39 56.7 °F /  13.7 °C 48.8 °F /  9.3 °C 29.63in /  1003.3hPa WSW 1.2mph /  1.9km/h 5mph /  8km/h 75% 0.00in /  0mm 23 W/m2
17:44 56.4 °F /  13.6 °C 48.8 °F /  9.3 °C 29.64in /  1003.6hPa WSW 2.1mph /  3.4km/h 5mph /  8km/h 75.4% 0.00in /  0mm 19 W/m2
17:49 56 °F /  13.3 °C 48.7 °F /  9.3 °C 29.64in /  1003.6hPa WSW 1.9mph /  3.1km/h 5mph /  8km/h 76% 0.00in /  0mm 18 W/m2
17:54 55.8 °F /  13.2 °C 48.5 °F /  9.2 °C 29.64in /  1003.6hPa WSW 0.6mph /  1km/h 4mph /  6.4km/h 76% 0.00in /  0mm 14 W/m2
17:59 55.7 °F /  13.2 °C 48.3 °F /  9.1 °C 29.64in /  1003.6hPa WSW 0.6mph /  1km/h 3mph /  4.8km/h 76% 0.00in /  0mm 12 W/m2
18:04 55.6 °F /  13.1 °C 48.2 °F /  9 °C 29.64in /  1003.6hPa WSW 0.1mph /  0.2km/h 1mph /  1.6km/h 76% 0.00in /  0mm 11 W/m2
18:09 55.5 °F /  13.1 °C 48.1 °F /  8.9 °C 29.64in /  1003.6hPa Calm   1mph /  1.6km/h 76% 0.00in /  0mm 7 W/m2
18:14 55.3 °F /  12.9 °C 47.9 °F /  8.8 °C 29.65in /  1003.9hPa Calm   1mph /  1.6km/h 76.1% 0.00in /  0mm 5 W/m2
18:19 55.2 °F /  12.9 °C 48.1 °F /  8.9 °C 29.65in /  1003.9hPa Calm     76.8% 0.00in /  0mm 0 W/m2
18:24 55.1 °F /  12.8 °C 48.1 °F /  8.9 °C 29.65in /  1003.9hPa WSW 0.1mph /  0.2km/h 1mph /  1.6km/h 77% 0.00in /  0mm 0 W/m2
18:29 55 °F /  12.8 °C 48.1 °F /  8.9 °C 29.65in /  1003.9hPa Calm     77.4% 0.00in /  0mm 0 W/m2
18:34 54.9 °F /  12.7 °C 48.2 °F /  9 °C 29.65in /  1003.9hPa WSW 0.2mph /  0.3km/h 1mph /  1.6km/h 78% 0.00in /  0mm 0 W/m2
18:39 54.6 °F /  12.6 °C 48.2 °F /  9 °C 29.65in /  1003.9hPa Calm   1mph /  1.6km/h 78.6% 0.00in /  0mm 0 W/m2
18:44 54.3 °F /  12.4 °C 48 °F /  8.9 °C 29.65in /  1003.9hPa WSW 0.3mph /  0.5km/h 2mph /  3.2km/h 79% 0.00in /  0mm 0 W/m2
18:49 54.2 °F /  12.3 °C 48 °F /  8.9 °C 29.65in /  1003.9hPa Calm   1mph /  1.6km/h 80% 0.00in /  0mm 0 W/m2
18:54 54 °F /  12.2 °C 48 °F /  8.9 °C 29.65in /  1003.9hPa Calm     80% 0.00in /  0mm 0 W/m2
18:59 53.9 °F /  12.2 °C 48 °F /  8.9 °C 29.66in /  1004.3hPa Calm     80.4% 0.00in /  0mm 0 W/m2
19:04 54 °F /  12.2 °C 48.2 °F /  9 °C 29.66in /  1004.3hPa WSW 0.1mph /  0.2km/h 1mph /  1.6km/h 81% 0.00in /  0mm 0 W/m2
19:09 53.9 °F /  12.2 °C 48.1 °F /  8.9 °C 29.66in /  1004.3hPa WSW 0.4mph /  0.6km/h 2mph /  3.2km/h 81% 0.00in /  0mm 0 W/m2
19:14 53.7 °F /  12.1 °C 47.9 °F /  8.8 °C 29.66in /  1004.3hPa Calm     81% 0.00in /  0mm 0 W/m2
19:19 53.5 °F /  11.9 °C 47.7 °F /  8.7 °C 29.66in /  1004.3hPa WSW 0.8mph /  1.3km/h 3mph /  4.8km/h 81% 0.00in /  0mm 0 W/m2
19:24 53.4 °F /  11.9 °C 47.6 °F /  8.7 °C 29.66in /  1004.3hPa WSW 0.1mph /  0.2km/h 3mph /  4.8km/h 80.5% 0.00in /  0mm 0 W/m2
19:29 53.4 °F /  11.9 °C 47.7 °F /  8.7 °C 29.67in /  1004.6hPa Calm     81% 0.00in /  0mm 0 W/m2
19:34 53.2 °F /  11.8 °C 47.5 °F /  8.6 °C 29.67in /  1004.6hPa Calm     81% 0.00in /  0mm 0 W/m2
19:39 53.2 °F /  11.8 °C 47.5 °F /  8.6 °C 29.67in /  1004.6hPa WSW 0.2mph /  0.3km/h 1mph /  1.6km/h 81% 0.00in /  0mm 0 W/m2
19:44 53.1 °F /  11.7 °C 47.3 °F /  8.5 °C 29.67in /  1004.6hPa WSW 0.1mph /  0.2km/h 1mph /  1.6km/h 81% 0.00in /  0mm 0 W/m2
19:49 53 °F /  11.7 °C 47.3 °F /  8.5 °C 29.67in /  1004.6hPa WSW 1.2mph /  1.9km/h 3mph /  4.8km/h 81% 0.00in /  0mm 0 W/m2
19:54 52.8 °F /  11.6 °C 47.2 °F /  8.4 °C 29.67in /  1004.6hPa WSW 0.1mph /  0.2km/h 3mph /  4.8km/h 81% 0.00in /  0mm 0 W/m2
19:59 52.8 °F /  11.6 °C 47.2 °F /  8.4 °C 29.67in /  1004.6hPa Calm     81% 0.00in /  0mm 0 W/m2
20:04 52.7 °F /  11.5 °C 47.2 °F /  8.4 °C 29.67in /  1004.6hPa Calm     81.2% 0.00in /  0mm 0 W/m2
20:09 52.5 °F /  11.4 °C 47.1 °F /  8.4 °C 29.67in /  1004.6hPa Calm     82% 0.00in /  0mm 0 W/m2
20:14 52.3 °F /  11.3 °C 46.9 °F /  8.3 °C 29.67in /  1004.6hPa Calm     82% 0.00in /  0mm 0 W/m2
20:19 52.2 °F /  11.2 °C 47.2 °F /  8.4 °C 29.67in /  1004.6hPa Calm     83% 0.00in /  0mm 0 W/m2
20:24 52.1 °F /  11.2 °C 47 °F /  8.3 °C 29.67in /  1004.6hPa Calm     83% 0.00in /  0mm 0 W/m2
20:29 51.8 °F /  11 °C 46.9 °F /  8.3 °C 29.68in /  1005hPa Calm     83.4% 0.00in /  0mm 0 W/m2
20:34 51.5 °F /  10.8 °C 46.9 °F /  8.3 °C 29.68in /  1005hPa Calm     84% 0.00in /  0mm 0 W/m2
20:39 51.3 °F /  10.7 °C 46.6 °F /  8.1 °C 29.68in /  1005hPa Calm     84% 0.00in /  0mm 0 W/m2
20:44 50.9 °F /  10.5 °C 46.6 °F /  8.1 °C 29.68in /  1005hPa Calm     84.8% 0.00in /  0mm 0 W/m2
20:49 50.5 °F /  10.3 °C 46.1 °F /  7.8 °C 29.68in /  1005hPa Calm     85% 0.00in /  0mm 0 W/m2
20:54 50.3 °F /  10.2 °C 46.1 °F /  7.8 °C 29.68in /  1005hPa Calm     85.6% 0.00in /  0mm 0 W/m2
20:59 49.9 °F /  9.9 °C 46 °F /  7.8 °C 29.68in /  1005hPa Calm     86% 0.00in /  0mm 0 W/m2
21:04 49.7 °F /  9.8 °C 45.9 °F /  7.7 °C 29.68in /  1005hPa Calm     86.4% 0.00in /  0mm 0 W/m2
21:09 49.5 °F /  9.7 °C 45.8 °F /  7.7 °C 29.69in /  1005.3hPa Calm     87% 0.00in /  0mm 0 W/m2
21:14 49.3 °F /  9.6 °C 45.5 °F /  7.5 °C 29.69in /  1005.3hPa Calm     87% 0.00in /  0mm 0 W/m2
21:19 48.9 °F /  9.4 °C 45.1 °F /  7.3 °C 29.69in /  1005.3hPa Calm     87% 0.00in /  0mm 0 W/m2
21:24 48.7 °F /  9.3 °C 45.1 °F /  7.3 °C 29.69in /  1005.3hPa Calm     87.6% 0.00in /  0mm 0 W/m2
21:29 48.6 °F /  9.2 °C 45.1 °F /  7.3 °C 29.69in /  1005.3hPa Calm     88% 0.00in /  0mm 0 W/m2
21:34 48.4 °F /  9.1 °C 45 °F /  7.2 °C 29.69in /  1005.3hPa Calm     88% 0.00in /  0mm 0 W/m2
21:39 48.4 °F /  9.1 °C 45 °F /  7.2 °C 29.69in /  1005.3hPa Calm     88% 0.00in /  0mm 0 W/m2
21:44 48.2 °F /  9 °C 44.8 °F /  7.1 °C 29.69in /  1005.3hPa Calm     88% 0.00in /  0mm 0 W/m2
21:49 48.1 °F /  8.9 °C 45 °F /  7.2 °C 29.69in /  1005.3hPa Calm     88.9% 0.00in /  0mm 0 W/m2
21:54 47.9 °F /  8.8 °C 44.8 °F /  7.1 °C 29.69in /  1005.3hPa Calm     88.7% 0.00in /  0mm 0 W/m2
21:59 47.7 °F /  8.7 °C 44.6 °F /  7 °C 29.69in /  1005.3hPa Calm     89% 0.00in /  0mm 0 W/m2
22:04 47.5 °F /  8.6 °C 44.4 °F /  6.9 °C 29.70in /  1005.6hPa Calm     89% 0.00in /  0mm 0 W/m2
22:09 47.2 °F /  8.4 °C 44.1 °F /  6.7 °C 29.70in /  1005.6hPa Calm     89% 0.00in /  0mm 0 W/m2
22:14 47 °F /  8.3 °C 44 °F /  6.7 °C 29.70in /  1005.6hPa Calm     89% 0.00in /  0mm 0 W/m2
22:19 46.9 °F /  8.3 °C 43.9 °F /  6.6 °C 29.70in /  1005.6hPa Calm     89% 0.00in /  0mm 0 W/m2
22:24 46.9 °F /  8.3 °C 43.9 °F /  6.6 °C 29.70in /  1005.6hPa Calm     89.2% 0.00in /  0mm 0 W/m2
22:29 46.8 °F /  8.2 °C 43.9 °F /  6.6 °C 29.70in /  1005.6hPa Calm     89.4% 0.00in /  0mm 0 W/m2
22:34 46.7 °F /  8.2 °C 44 °F /  6.7 °C 29.70in /  1005.6hPa Calm     90% 0.00in /  0mm 0 W/m2
22:39 46.6 °F /  8.1 °C 43.9 °F /  6.6 °C 29.70in /  1005.6hPa Calm     90% 0.00in /  0mm 0 W/m2
22:44 46.2 °F /  7.9 °C 43.5 °F /  6.4 °C 29.70in /  1005.6hPa Calm     90% 0.00in /  0mm 0 W/m2
22:49 46.2 °F /  7.9 °C 43.5 °F /  6.4 °C 29.70in /  1005.6hPa Calm     90% 0.00in /  0mm 0 W/m2
22:54 46.1 °F /  7.8 °C 43.4 °F /  6.3 °C 29.70in /  1005.6hPa Calm     90% 0.00in /  0mm 0 W/m2
22:59 46 °F /  7.8 °C 43.3 °F /  6.3 °C 29.71in /  1006hPa WSW 1.1mph /  1.8km/h 4mph /  6.4km/h 90% 0.00in /  0mm 0 W/m2
23:04 46.2 °F /  7.9 °C 43.7 °F /  6.5 °C 29.70in /  1005.6hPa West 1.2mph /  1.9km/h 4mph /  6.4km/h 90.9% 0.00in /  0mm 0 W/m2
23:09 46.3 °F /  7.9 °C 43.8 °F /  6.6 °C 29.70in /  1005.6hPa West 1.3mph /  2.1km/h 3mph /  4.8km/h 91% 0.00in /  0mm 0 W/m2
23:14 46.4 °F /  8 °C 43.9 °F /  6.6 °C 29.70in /  1005.6hPa West 2.3mph /  3.7km/h 4mph /  6.4km/h 91% 0.00in /  0mm 0 W/m2
23:19 46.6 °F /  8.1 °C 44.1 °F /  6.7 °C 29.71in /  1006hPa West 1.9mph /  3.1km/h 4mph /  6.4km/h 91% 0.00in /  0mm 0 W/m2
23:24 46.8 °F /  8.2 °C 44.2 °F /  6.8 °C 29.71in /  1006hPa West 1.2mph /  1.9km/h 3mph /  4.8km/h 91% 0.00in /  0mm 0 W/m2
23:29 46.8 °F /  8.2 °C 44.2 °F /  6.8 °C 29.71in /  1006hPa West 0.1mph /  0.2km/h 3mph /  4.8km/h 91% 0.00in /  0mm 0 W/m2
23:34 46.7 °F /  8.2 °C 44.1 °F /  6.7 °C 29.71in /  1006hPa Calm   2mph /  3.2km/h 91% 0.00in /  0mm 0 W/m2
23:39 46.6 °F /  8.1 °C 44.1 °F /  6.7 °C 29.71in /  1006hPa West 0.3mph /  0.5km/h 3mph /  4.8km/h 91% 0.00in /  0mm 0 W/m2
23:44 46.5 °F /  8.1 °C 44 °F /  6.7 °C 29.71in /  1006hPa West 1.4mph /  2.3km/h 3mph /  4.8km/h 91% 0.00in /  0mm 0 W/m2
23:49 46.4 °F /  8 °C 43.9 °F /  6.6 °C 29.71in /  1006hPa West 0.8mph /  1.3km/h 4mph /  6.4km/h 91% 0.00in /  0mm 0 W/m2
23:54 46.5 °F /  8.1 °C 44 °F /  6.7 °C 29.71in /  1006hPa West 2.3mph /  3.7km/h 4mph /  6.4km/h 91% 0.00in /  0mm 0 W/m2
23:59 46.6 °F /  8.1 °C 44.1 °F /  6.7 °C 29.71in /  1006hPa West 2.3mph /  3.7km/h 5mph /  8km/h 91% 0.00in /  0mm 0 W/m2
Bath Spa Weather
Compliments of Weather Underground - 2 mb